createdAt,value
2022-10-08T00:00:38.976Z,955.78
2022-10-08T00:01:39.017Z,955.76
2022-10-08T00:02:38.954Z,955.78
2022-10-08T00:03:38.943Z,955.75
2022-10-08T00:04:38.972Z,955.79
2022-10-08T00:05:38.944Z,955.77
2022-10-08T00:06:38.914Z,955.85
2022-10-08T00:07:38.900Z,955.84
2022-10-08T00:08:38.893Z,955.81
2022-10-08T00:09:38.879Z,955.85
2022-10-08T00:10:38.872Z,955.8
2022-10-08T00:11:38.861Z,955.8
2022-10-08T00:12:38.850Z,955.8
2022-10-08T00:13:38.842Z,955.75
2022-10-08T00:14:38.838Z,955.75
2022-10-08T00:15:38.819Z,955.75
2022-10-08T00:16:38.894Z,955.75
2022-10-08T00:17:38.800Z,955.68
2022-10-08T00:18:38.790Z,955.72
2022-10-08T00:19:38.782Z,955.74
2022-10-08T00:20:38.770Z,955.7
2022-10-08T00:21:38.786Z,955.7
2022-10-08T00:22:38.748Z,955.64
2022-10-08T00:23:38.739Z,955.66
2022-10-08T00:24:38.728Z,955.68
2022-10-08T00:25:38.725Z,955.69
2022-10-08T00:26:43.494Z,955.67
2022-10-08T00:27:38.701Z,955.62
2022-10-08T00:28:38.730Z,955.67
2022-10-08T00:29:38.681Z,955.63
2022-10-08T00:30:38.670Z,955.68
2022-10-08T00:31:38.669Z,955.65
2022-10-08T00:32:38.649Z,955.6
2022-10-08T00:33:38.643Z,955.6
2022-10-08T00:34:38.629Z,955.62
2022-10-08T00:35:38.621Z,955.59
2022-10-08T00:36:38.611Z,955.48
2022-10-08T00:37:38.625Z,955.47
2022-10-08T00:38:38.596Z,955.47
2022-10-08T00:39:38.582Z,955.54
2022-10-08T00:40:38.573Z,955.51
2022-10-08T00:41:38.566Z,955.49
2022-10-08T00:42:38.554Z,955.42
2022-10-08T00:43:38.543Z,955.44
2022-10-08T00:44:38.533Z,955.48
2022-10-08T00:45:38.563Z,955.41
2022-10-08T00:46:38.511Z,955.42
2022-10-08T00:47:38.503Z,955.4
2022-10-08T00:48:38.491Z,955.42
2022-10-08T00:49:38.484Z,955.43
2022-10-08T00:50:38.471Z,955.45
2022-10-08T00:51:38.464Z,955.43
2022-10-08T00:52:38.452Z,955.43
2022-10-08T00:53:38.469Z,955.4
2022-10-08T00:54:38.825Z,955.41
2022-10-08T00:55:42.562Z,955.4
2022-10-08T00:56:38.806Z,955.44
2022-10-08T00:57:38.808Z,955.37
2022-10-08T00:58:38.787Z,955.38
2022-10-08T00:59:38.781Z,955.37
2022-10-08T01:00:38.821Z,955.32
2022-10-08T01:01:38.787Z,955.34
2022-10-08T01:02:38.751Z,955.29
2022-10-08T01:03:38.739Z,955.31
2022-10-08T01:04:38.730Z,955.32
2022-10-08T01:05:38.721Z,955.31
2022-10-08T01:06:38.711Z,955.24
2022-10-08T01:07:38.701Z,955.21
2022-10-08T01:08:38.692Z,955.21
2022-10-08T01:09:38.704Z,955.2
2022-10-08T01:10:38.675Z,955.18
2022-10-08T01:11:38.668Z,955.16
2022-10-08T01:12:38.656Z,955.17
2022-10-08T01:13:38.640Z,955.18
2022-10-08T01:14:38.631Z,955.17
2022-10-08T01:15:38.622Z,955.15
2022-10-08T01:16:38.646Z,955.13
2022-10-08T01:17:38.604Z,955.07
2022-10-08T01:18:38.593Z,955.1
2022-10-08T01:19:38.583Z,955.1
2022-10-08T01:20:38.574Z,955.04
2022-10-08T01:21:38.565Z,955.12
2022-10-08T01:22:38.555Z,955.03
2022-10-08T01:23:38.549Z,955.01
2022-10-08T01:24:38.536Z,955.02
2022-10-08T01:25:38.552Z,955
2022-10-08T01:26:38.517Z,955.02
2022-10-08T01:27:38.505Z,955.02
2022-10-08T01:28:38.535Z,955
2022-10-08T01:29:38.489Z,955.03
2022-10-08T01:30:38.479Z,954.96
2022-10-08T01:31:38.536Z,954.97
2022-10-08T01:32:38.458Z,954.96
2022-10-08T01:33:38.446Z,954.98
2022-10-08T01:34:38.439Z,955
2022-10-08T01:35:38.426Z,954.94
2022-10-08T01:36:38.422Z,954.97
2022-10-08T01:37:38.408Z,954.98
2022-10-08T01:38:39.209Z,954.96
2022-10-08T01:39:39.195Z,954.94
2022-10-08T01:40:39.191Z,954.91
2022-10-08T01:41:39.203Z,954.89
2022-10-08T01:42:39.171Z,954.89
2022-10-08T01:43:39.157Z,954.91
2022-10-08T01:44:39.150Z,954.96
2022-10-08T01:45:39.189Z,954.9
2022-10-08T01:46:39.130Z,954.91
2022-10-08T01:47:39.121Z,954.92
2022-10-08T01:48:39.112Z,954.95
2022-10-08T01:49:39.103Z,954.93
2022-10-08T01:50:39.091Z,954.97
2022-10-08T01:51:39.080Z,954.94
2022-10-08T01:52:39.102Z,954.92
2022-10-08T01:53:39.062Z,954.91
2022-10-08T01:54:39.053Z,954.92
2022-10-08T01:55:39.040Z,954.87
2022-10-08T01:56:39.032Z,954.87
2022-10-08T01:57:39.056Z,954.86
2022-10-08T01:58:39.014Z,954.87
2022-10-08T01:59:39.001Z,954.88
2022-10-08T02:00:38.990Z,954.92
2022-10-08T02:01:38.986Z,954.92
2022-10-08T02:02:39.201Z,954.89
2022-10-08T02:03:38.965Z,954.9
2022-10-08T02:04:38.951Z,954.9
2022-10-08T02:05:38.947Z,954.85
2022-10-08T02:06:38.933Z,954.87
2022-10-08T02:07:38.923Z,954.91
2022-10-08T02:08:38.913Z,954.87
2022-10-08T02:09:38.904Z,954.89
2022-10-08T02:10:38.893Z,954.86
2022-10-08T02:11:38.885Z,954.87
2022-10-08T02:12:38.872Z,954.84
2022-10-08T02:13:38.888Z,954.88
2022-10-08T02:14:38.854Z,954.8
2022-10-08T02:15:38.844Z,954.82
2022-10-08T02:16:38.861Z,954.8
2022-10-08T02:17:38.825Z,954.75
2022-10-08T02:18:38.817Z,954.81
2022-10-08T02:19:38.804Z,954.76
2022-10-08T02:20:38.792Z,954.78
2022-10-08T02:21:38.785Z,954.76
2022-10-08T02:22:38.775Z,954.8
2022-10-08T02:23:38.768Z,954.82
2022-10-08T02:24:38.755Z,954.8
2022-10-08T02:25:38.745Z,954.78
2022-10-08T02:26:38.734Z,954.77
2022-10-08T02:27:38.728Z,954.75
2022-10-08T02:28:38.738Z,954.78
2022-10-08T02:29:38.731Z,954.74
2022-10-08T02:30:38.695Z,954.73
2022-10-08T02:31:38.737Z,954.71
2022-10-08T02:32:38.678Z,954.77
2022-10-08T02:33:38.668Z,954.76
2022-10-08T02:34:38.656Z,954.79
2022-10-08T02:35:38.667Z,954.79
2022-10-08T02:36:38.637Z,954.75
2022-10-08T02:37:38.630Z,954.76
2022-10-08T02:38:38.618Z,954.78
2022-10-08T02:39:38.609Z,954.79
2022-10-08T02:40:38.597Z,954.77
2022-10-08T02:41:38.588Z,954.79
2022-10-08T02:42:38.578Z,954.77
2022-10-08T02:43:38.570Z,954.76
2022-10-08T02:44:38.557Z,954.78
2022-10-08T02:45:38.610Z,954.8
2022-10-08T02:46:38.538Z,954.81
2022-10-08T02:47:38.531Z,954.82
2022-10-08T02:48:38.517Z,954.77
2022-10-08T02:49:38.509Z,954.79
2022-10-08T02:50:38.499Z,954.8
2022-10-08T02:51:38.491Z,954.82
2022-10-08T02:52:38.480Z,954.81
2022-10-08T02:53:38.468Z,954.82
2022-10-08T02:54:38.467Z,954.79
2022-10-08T02:55:38.451Z,954.79
2022-10-08T02:56:38.439Z,954.77
2022-10-08T02:57:38.431Z,954.76
2022-10-08T02:58:38.420Z,954.75
2022-10-08T02:59:38.423Z,954.79
2022-10-08T03:00:38.402Z,954.8
2022-10-08T03:01:38.484Z,954.82
2022-10-08T03:02:38.429Z,954.81
2022-10-08T03:03:38.368Z,954.86
2022-10-08T03:04:38.363Z,954.83
2022-10-08T03:05:38.391Z,954.83
2022-10-08T03:06:38.382Z,954.89
2022-10-08T03:07:38.370Z,954.9
2022-10-08T03:08:38.368Z,954.93
2022-10-08T03:09:38.350Z,954.94
2022-10-08T03:10:38.341Z,954.95
2022-10-08T03:11:38.330Z,954.97
2022-10-08T03:12:38.322Z,954.91
2022-10-08T03:13:38.314Z,954.9
2022-10-08T03:14:38.303Z,954.94
2022-10-08T03:15:38.291Z,954.94
2022-10-08T03:16:38.337Z,954.98
2022-10-08T03:17:38.297Z,955
2022-10-08T03:18:38.262Z,954.94
2022-10-08T03:19:38.252Z,954.99
2022-10-08T03:20:38.243Z,954.97
2022-10-08T03:21:38.231Z,955.03
2022-10-08T03:22:38.223Z,955.02
2022-10-08T03:23:38.215Z,955.04
2022-10-08T03:24:38.212Z,955.01
2022-10-08T03:25:38.193Z,955.07
2022-10-08T03:26:38.184Z,955.06
2022-10-08T03:27:38.175Z,955.05
2022-10-08T03:28:38.262Z,955.04
2022-10-08T03:29:38.153Z,955.04
2022-10-08T03:30:38.200Z,955.06
2022-10-08T03:31:38.139Z,955.08
2022-10-08T03:32:38.157Z,955.08
2022-10-08T03:49:40.739Z,955.1
2022-10-08T03:50:40.700Z,955.09
2022-10-08T03:51:40.691Z,955.11
2022-10-08T03:52:40.673Z,955.14
2022-10-08T03:53:40.661Z,955.1
2022-10-08T03:54:40.650Z,955.14
2022-10-08T03:55:40.639Z,955.12
2022-10-08T03:56:40.625Z,955.13
2022-10-08T03:57:40.614Z,955.1
2022-10-08T03:58:40.601Z,955.12
2022-10-08T03:59:40.589Z,955.12
2022-10-08T04:00:40.581Z,955.09
2022-10-08T04:01:40.605Z,955.05
2022-10-08T04:02:40.622Z,955.1
2022-10-08T04:03:40.544Z,955.12
2022-10-08T04:04:40.535Z,955.07
2022-10-08T04:05:40.548Z,955.05
2022-10-08T04:06:40.513Z,955.08
2022-10-08T04:07:40.502Z,955.06
2022-10-08T04:08:40.488Z,955.05
2022-10-08T04:09:40.483Z,955.04
2022-10-08T04:10:40.480Z,955.04
2022-10-08T04:11:40.459Z,954.99
2022-10-08T04:12:40.451Z,955
2022-10-08T04:13:40.449Z,955
2022-10-08T04:14:40.430Z,954.96
2022-10-08T04:15:40.488Z,954.97
2022-10-08T04:16:40.414Z,954.96
2022-10-08T04:17:40.412Z,954.9
2022-10-08T04:18:40.392Z,954.94
2022-10-08T04:19:40.380Z,954.89
2022-10-08T04:20:40.365Z,954.93
2022-10-08T04:21:40.380Z,954.96
2022-10-08T04:22:40.345Z,954.92
2022-10-08T04:23:40.335Z,954.95
2022-10-08T04:24:40.324Z,954.91
2022-10-08T04:25:40.318Z,954.97
2022-10-08T04:26:40.307Z,954.97
2022-10-08T04:27:40.307Z,955.02
2022-10-08T04:28:40.495Z,955.02
2022-10-08T04:29:40.276Z,955.03
2022-10-08T04:30:40.278Z,955.06
2022-10-08T04:31:40.255Z,955.05
2022-10-08T04:32:40.243Z,955.02
2022-10-08T04:33:41.098Z,955.05
2022-10-08T04:34:41.084Z,955.01
2022-10-08T04:35:41.077Z,955.03
2022-10-08T04:36:41.067Z,955.06
2022-10-08T04:37:41.082Z,955.09
2022-10-08T04:38:41.045Z,955.06
2022-10-08T04:39:41.038Z,955.07
2022-10-08T04:40:41.026Z,955.1
2022-10-08T04:41:41.017Z,955.1
2022-10-08T04:42:41.007Z,955.09
2022-10-08T04:43:40.995Z,955.08
2022-10-08T04:44:40.987Z,955.06
2022-10-08T04:45:40.974Z,955.07
2022-10-08T04:46:41.010Z,955.06
2022-10-08T04:47:40.956Z,955.05
2022-10-08T04:48:40.949Z,955.05
2022-10-08T04:49:40.935Z,955.01
2022-10-08T04:50:40.927Z,954.99
2022-10-08T04:51:40.916Z,955
2022-10-08T04:52:40.925Z,955.03
2022-10-08T04:53:40.931Z,955.03
2022-10-08T04:54:40.906Z,955.04
2022-10-08T04:55:40.889Z,955.04
2022-10-08T04:56:40.881Z,955.04
2022-10-08T04:57:40.869Z,955.05
2022-10-08T04:58:40.860Z,955.11
2022-10-08T04:59:53.880Z,955.12
2022-10-08T05:00:40.843Z,955.17
2022-10-08T05:01:40.885Z,955.15
2022-10-08T05:02:40.863Z,955.14
2022-10-08T05:03:40.813Z,955.15
2022-10-08T05:04:40.801Z,955.22
2022-10-08T05:05:40.794Z,955.18
2022-10-08T05:06:40.785Z,955.19
2022-10-08T05:07:40.769Z,955.16
2022-10-08T05:08:40.780Z,955.17
2022-10-08T05:09:40.775Z,955.19
2022-10-08T05:10:40.743Z,955.18
2022-10-08T05:11:40.734Z,955.21
2022-10-08T05:12:40.728Z,955.22
2022-10-08T05:13:40.713Z,955.2
2022-10-08T05:14:40.705Z,955.29
2022-10-08T05:15:40.759Z,955.25
2022-10-08T05:16:40.686Z,955.3
2022-10-08T05:17:40.675Z,955.25
2022-10-08T05:18:40.665Z,955.24
2022-10-08T05:19:40.653Z,955.26
2022-10-08T05:20:40.646Z,955.22
2022-10-08T05:21:40.633Z,955.26
2022-10-08T05:22:40.625Z,955.28
2022-10-08T05:23:40.616Z,955.18
2022-10-08T05:24:40.608Z,955.21
2022-10-08T05:25:40.622Z,955.26
2022-10-08T05:26:57.325Z,955.27
2022-10-08T05:27:40.572Z,955.34
2022-10-08T05:28:40.657Z,955.33
2022-10-08T05:29:40.555Z,955.34
2022-10-08T05:30:40.546Z,955.33
2022-10-08T05:31:40.536Z,955.29
2022-10-08T05:32:40.523Z,955.26
2022-10-08T05:33:40.516Z,955.26
2022-10-08T05:34:40.506Z,955.25
2022-10-08T05:35:40.500Z,955.25
2022-10-08T05:36:40.485Z,955.33
2022-10-08T05:37:40.477Z,955.37
2022-10-08T05:38:40.463Z,955.37
2022-10-08T05:39:40.458Z,955.38
2022-10-08T05:40:40.444Z,955.33
2022-10-08T05:41:40.469Z,955.31
2022-10-08T05:42:40.426Z,955.27
2022-10-08T05:43:40.415Z,955.27
2022-10-08T05:44:42.415Z,955.3
2022-10-08T05:45:40.398Z,955.29
2022-10-08T05:46:40.469Z,955.32
2022-10-08T05:47:40.379Z,955.33
2022-10-08T05:48:40.364Z,955.44
2022-10-08T05:49:40.358Z,955.42
2022-10-08T05:50:40.347Z,955.42
2022-10-08T05:51:40.336Z,955.43
2022-10-08T05:52:40.325Z,955.47
2022-10-08T05:53:40.319Z,955.46
2022-10-08T05:54:40.308Z,955.48
2022-10-08T05:55:40.296Z,955.51
2022-10-08T05:56:40.286Z,955.55
2022-10-08T05:57:40.300Z,955.53
2022-10-08T05:58:40.267Z,955.56
2022-10-08T05:59:40.257Z,955.53
2022-10-08T06:00:40.248Z,955.53
2022-10-08T06:01:40.241Z,955.54
2022-10-08T06:02:40.277Z,955.54
2022-10-08T06:03:40.219Z,955.52
2022-10-08T06:04:40.248Z,955.51
2022-10-08T06:05:40.200Z,955.55
2022-10-08T06:06:40.184Z,955.57
2022-10-08T06:07:40.179Z,955.56
2022-10-08T06:08:40.166Z,955.56
2022-10-08T06:09:40.159Z,955.58
2022-10-08T06:10:40.149Z,955.59
2022-10-08T06:11:40.139Z,955.62
2022-10-08T06:12:40.126Z,955.63
2022-10-08T06:13:40.148Z,955.59
2022-10-08T06:14:40.105Z,955.62
2022-10-08T06:15:40.101Z,955.61
2022-10-08T06:16:40.177Z,955.65
2022-10-08T06:17:40.077Z,955.63
2022-10-08T06:18:40.068Z,955.66
2022-10-08T06:19:40.057Z,955.71
2022-10-08T06:20:40.050Z,955.67
2022-10-08T06:21:40.037Z,955.7
2022-10-08T06:22:40.033Z,955.72
2022-10-08T06:23:40.067Z,955.72
2022-10-08T06:24:40.008Z,955.74
2022-10-08T06:25:39.996Z,955.78
2022-10-08T06:26:39.990Z,955.75
2022-10-08T06:27:39.976Z,955.81
2022-10-08T06:28:40.055Z,955.85
2022-10-08T06:29:39.981Z,955.8
2022-10-08T06:30:39.949Z,955.78
2022-10-08T06:31:40.020Z,955.79
2022-10-08T06:32:39.929Z,955.79
2022-10-08T06:33:39.917Z,955.83
2022-10-08T06:34:39.909Z,955.85
2022-10-08T06:35:39.899Z,955.9
2022-10-08T06:36:39.890Z,955.91
2022-10-08T06:37:39.879Z,955.91
2022-10-08T06:38:39.871Z,955.9
2022-10-08T06:39:40.724Z,955.91
2022-10-08T06:40:39.850Z,955.93
2022-10-08T06:41:39.842Z,955.94
2022-10-08T06:42:39.830Z,955.95
2022-10-08T06:43:39.820Z,955.91
2022-10-08T06:44:39.813Z,955.93
2022-10-08T06:45:39.824Z,955.92
2022-10-08T06:46:39.858Z,955.94
2022-10-08T06:47:39.781Z,955.9
2022-10-08T06:48:39.774Z,955.85
2022-10-08T06:49:39.762Z,955.86
2022-10-08T06:50:39.754Z,955.84
2022-10-08T06:51:39.755Z,955.86
2022-10-08T06:52:39.734Z,955.89
2022-10-08T06:53:39.721Z,955.86
2022-10-08T06:54:39.716Z,955.9
2022-10-08T06:55:39.704Z,955.92
2022-10-08T06:56:39.696Z,955.91
2022-10-08T06:57:39.682Z,955.91
2022-10-08T06:58:39.674Z,955.83
2022-10-08T06:59:39.667Z,955.82
2022-10-08T07:00:39.738Z,955.89
2022-10-08T07:01:39.803Z,955.95
2022-10-08T07:02:39.678Z,955.99
2022-10-08T07:03:39.627Z,955.99
2022-10-08T07:04:39.616Z,956.01
2022-10-08T07:05:39.604Z,956
2022-10-08T07:06:39.596Z,955.94
2022-10-08T07:07:39.589Z,955.98
2022-10-08T07:08:39.579Z,956.01
2022-10-08T07:09:39.564Z,956.02
2022-10-08T07:10:39.557Z,956.02
2022-10-08T07:11:39.547Z,955.98
2022-10-08T07:12:39.540Z,956.03
2022-10-08T07:13:39.527Z,956.04
2022-10-08T07:14:39.516Z,956.08
2022-10-08T07:15:39.510Z,956.09
2022-10-08T07:16:39.526Z,956.07
2022-10-08T07:17:39.515Z,956.09
2022-10-08T07:18:39.480Z,956
2022-10-08T07:19:39.469Z,956.03
2022-10-08T07:20:39.459Z,956.03
2022-10-08T07:21:39.451Z,956.06
2022-10-08T07:22:39.724Z,955.99
2022-10-08T07:23:39.714Z,956.02
2022-10-08T07:24:39.702Z,955.97
2022-10-08T07:25:39.694Z,955.93
2022-10-08T07:26:39.686Z,955.91
2022-10-08T07:27:44.178Z,955.96
2022-10-08T07:28:39.715Z,955.96
2022-10-08T07:29:39.659Z,955.97
2022-10-08T07:30:39.650Z,955.99
2022-10-08T07:31:39.681Z,955.99
2022-10-08T07:32:39.629Z,955.93
2022-10-08T07:33:39.750Z,955.95
2022-10-08T07:34:39.611Z,955.95
2022-10-08T07:35:39.605Z,956.03
2022-10-08T07:36:39.593Z,956.11
2022-10-08T07:37:39.585Z,956.15
2022-10-08T07:38:39.573Z,956.12
2022-10-08T07:39:39.568Z,956.15
2022-10-08T07:40:39.555Z,956.09
2022-10-08T07:41:39.552Z,956.15
2022-10-08T07:42:39.539Z,956.14
2022-10-08T07:43:39.535Z,956.14
2022-10-08T07:44:39.520Z,956.14
2022-10-08T07:45:39.530Z,956.19
2022-10-08T07:46:39.504Z,956.2
2022-10-08T07:47:39.494Z,956.19
2022-10-08T07:48:39.498Z,956.21
2022-10-08T07:49:39.500Z,956.17
2022-10-08T07:50:39.468Z,956.1
2022-10-08T07:51:39.460Z,956.09
2022-10-08T07:52:39.450Z,956.14
2022-10-08T07:53:39.443Z,956.14
2022-10-08T07:54:39.434Z,956.13
2022-10-08T07:55:39.425Z,956.11
2022-10-08T07:56:39.415Z,956.1
2022-10-08T07:57:39.410Z,956.12
2022-10-08T07:58:39.400Z,956.15
2022-10-08T07:59:39.393Z,956.08
2022-10-08T08:00:39.427Z,956.07
2022-10-08T08:01:39.378Z,956.13
2022-10-08T08:02:39.364Z,956.11
2022-10-08T08:03:39.359Z,956.14
2022-10-08T08:04:39.348Z,956.1
2022-10-08T08:05:39.363Z,956.15
2022-10-08T08:06:39.332Z,956.14
2022-10-08T08:07:39.327Z,956.17
2022-10-08T08:08:39.317Z,956.21
2022-10-08T08:09:39.307Z,956.19
2022-10-08T08:10:39.300Z,956.16
2022-10-08T08:11:39.293Z,956.19
2022-10-08T08:12:39.285Z,956.18
2022-10-08T08:13:39.274Z,956.21
2022-10-08T08:14:39.268Z,956.23
2022-10-08T08:15:39.259Z,956.19
2022-10-08T08:16:39.332Z,956.28
2022-10-08T08:17:39.242Z,956.24
2022-10-08T08:18:39.238Z,956.24
2022-10-08T08:19:39.226Z,956.26
2022-10-08T08:20:39.229Z,956.26
2022-10-08T08:21:39.246Z,956.28
2022-10-08T08:22:39.204Z,956.24
2022-10-08T08:23:39.194Z,956.26
2022-10-08T08:24:39.188Z,956.26
2022-10-08T08:25:39.181Z,956.26
2022-10-08T08:26:39.177Z,956.27
2022-10-08T08:27:39.163Z,956.3
2022-10-08T08:28:39.202Z,956.3
2022-10-08T08:29:39.147Z,956.35
2022-10-08T08:30:39.141Z,956.33
2022-10-08T08:31:39.176Z,956.36
2022-10-08T08:32:39.125Z,956.34
2022-10-08T08:33:39.115Z,956.35
2022-10-08T08:34:39.110Z,956.4
2022-10-08T08:35:39.102Z,956.4
2022-10-08T08:36:39.097Z,956.47
2022-10-08T08:37:39.132Z,956.45
2022-10-08T08:38:39.079Z,956.44
2022-10-08T08:39:39.070Z,956.45
2022-10-08T08:40:39.065Z,956.45
2022-10-08T08:41:39.053Z,956.46
2022-10-08T08:42:39.050Z,956.43
2022-10-08T08:43:39.039Z,956.47
2022-10-08T08:44:39.034Z,956.43
2022-10-08T08:45:46.682Z,956.39
2022-10-08T08:46:39.047Z,956.39
2022-10-08T08:47:39.008Z,956.41
2022-10-08T08:48:39.011Z,956.42
2022-10-08T08:49:38.993Z,956.39
2022-10-08T08:50:38.986Z,956.39
2022-10-08T08:51:38.977Z,956.37
2022-10-08T08:52:38.970Z,956.4
2022-10-08T08:53:38.991Z,956.41
2022-10-08T08:54:38.957Z,956.41
2022-10-08T08:55:38.948Z,956.49
2022-10-08T08:56:38.940Z,956.42
2022-10-08T08:57:38.932Z,956.44
2022-10-08T08:58:38.924Z,956.45
2022-10-08T08:59:38.917Z,956.45
2022-10-08T09:00:38.914Z,956.49
2022-10-08T09:01:38.979Z,956.48
2022-10-08T09:02:38.895Z,956.5
2022-10-08T09:03:38.889Z,956.5
2022-10-08T09:04:43.016Z,956.52
2022-10-08T09:05:38.919Z,956.5
2022-10-08T09:06:38.865Z,956.52
2022-10-08T09:07:38.858Z,956.55
2022-10-08T09:08:38.850Z,956.58
2022-10-08T09:09:38.869Z,956.56
2022-10-08T09:10:38.835Z,956.53
2022-10-08T09:11:39.054Z,956.57
2022-10-08T09:12:39.042Z,956.6
2022-10-08T09:13:39.038Z,956.56
2022-10-08T09:14:39.026Z,956.55
2022-10-08T09:15:39.020Z,956.5
2022-10-08T09:16:39.084Z,956.52
2022-10-08T09:17:39.009Z,956.6
2022-10-08T09:18:38.999Z,956.59
2022-10-08T09:19:38.993Z,956.63
2022-10-08T09:20:40.333Z,956.59
2022-10-08T09:21:38.977Z,956.59
2022-10-08T09:22:38.969Z,956.64
2022-10-08T09:23:38.963Z,956.63
2022-10-08T09:24:38.957Z,956.66
2022-10-08T09:25:38.978Z,956.69
2022-10-08T09:26:38.939Z,956.67
2022-10-08T09:27:38.933Z,956.67
2022-10-08T09:28:38.956Z,956.67
2022-10-08T09:29:38.922Z,956.64
2022-10-08T09:30:38.996Z,956.62
2022-10-08T09:31:38.904Z,956.72
2022-10-08T09:32:38.896Z,956.68
2022-10-08T09:33:38.890Z,956.6
2022-10-08T09:34:38.881Z,956.66
2022-10-08T09:35:38.876Z,956.64
2022-10-08T09:36:38.867Z,956.68
2022-10-08T09:37:38.864Z,956.7
2022-10-08T09:38:38.856Z,956.6
2022-10-08T09:39:38.846Z,956.66
2022-10-08T09:40:38.841Z,956.72
2022-10-08T09:41:38.857Z,956.68
2022-10-08T09:42:38.825Z,956.72
2022-10-08T09:43:38.818Z,956.74
2022-10-08T09:44:38.811Z,956.69
2022-10-08T09:45:38.842Z,956.74
2022-10-08T09:46:38.797Z,956.73
2022-10-08T09:47:38.792Z,956.75
2022-10-08T09:48:38.786Z,956.76
2022-10-08T09:49:38.776Z,956.75
2022-10-08T09:50:38.773Z,956.73
2022-10-08T09:51:38.764Z,956.77
2022-10-08T09:52:38.760Z,956.8
2022-10-08T09:53:38.752Z,956.75
2022-10-08T09:54:38.746Z,956.76
2022-10-08T09:55:38.739Z,956.74
2022-10-08T09:56:38.733Z,956.74
2022-10-08T09:57:43.012Z,956.82
2022-10-08T09:58:38.720Z,956.87
2022-10-08T09:59:38.710Z,956.86
2022-10-08T10:00:38.703Z,956.85
2022-10-08T10:01:38.734Z,956.84
2022-10-08T10:02:38.690Z,956.84
2022-10-08T10:03:38.742Z,956.83
2022-10-08T10:04:38.678Z,956.85
2022-10-08T10:05:38.669Z,956.87
2022-10-08T10:06:38.665Z,956.92
2022-10-08T10:07:38.653Z,956.88
2022-10-08T10:08:38.647Z,956.85
2022-10-08T10:09:38.639Z,956.84
2022-10-08T10:10:38.637Z,956.91
2022-10-08T10:11:38.633Z,956.9
2022-10-08T10:12:38.619Z,956.89
2022-10-08T10:13:38.633Z,956.89
2022-10-08T10:14:38.607Z,956.92
2022-10-08T10:15:38.594Z,956.98
2022-10-08T10:16:38.616Z,956.92
2022-10-08T10:17:38.580Z,956.94
2022-10-08T10:18:38.574Z,956.87
2022-10-08T10:19:38.566Z,956.87
2022-10-08T10:20:38.567Z,956.89
2022-10-08T10:21:38.555Z,956.83
2022-10-08T10:22:38.545Z,956.77
2022-10-08T10:23:38.535Z,956.79
2022-10-08T10:24:38.531Z,956.83
2022-10-08T10:25:38.525Z,956.78
2022-10-08T10:26:38.517Z,956.82
2022-10-08T10:27:38.511Z,956.9
2022-10-08T10:28:38.543Z,956.88
2022-10-08T10:29:38.520Z,956.9
2022-10-08T10:30:38.508Z,956.83
2022-10-08T10:31:38.494Z,956.82
2022-10-08T10:32:38.477Z,956.82
2022-10-08T10:33:38.472Z,956.8
2022-10-08T10:34:38.515Z,956.79
2022-10-08T10:35:38.464Z,956.83
2022-10-08T10:36:38.451Z,956.83
2022-10-08T10:37:38.437Z,956.82
2022-10-08T10:38:42.197Z,956.86
2022-10-08T10:39:38.424Z,956.85
2022-10-08T10:40:38.414Z,956.9
2022-10-08T10:41:38.412Z,956.88
2022-10-08T10:42:38.402Z,956.87
2022-10-08T10:43:38.396Z,956.89
2022-10-08T10:44:38.387Z,956.87
2022-10-08T10:45:38.407Z,956.89
2022-10-08T10:46:38.443Z,956.9
2022-10-08T10:47:38.369Z,956.9
2022-10-08T10:48:38.360Z,956.96
2022-10-08T10:49:38.414Z,956.98
2022-10-08T10:50:38.345Z,956.95
2022-10-08T10:51:38.339Z,956.96
2022-10-08T10:52:38.331Z,956.98
2022-10-08T10:53:38.324Z,956.98
2022-10-08T10:54:38.318Z,956.88
2022-10-08T10:55:38.309Z,956.95
2022-10-08T10:56:38.303Z,957.01
2022-10-08T10:57:38.296Z,956.94
2022-10-08T10:58:38.286Z,956.91
2022-10-08T10:59:38.282Z,956.95
2022-10-08T11:00:38.789Z,956.89
2022-10-08T11:01:38.832Z,956.91
2022-10-08T11:02:38.802Z,956.88
2022-10-08T11:03:38.768Z,956.93
2022-10-08T11:04:38.759Z,956.93
2022-10-08T11:05:38.755Z,956.88
2022-10-08T11:06:38.744Z,956.85
2022-10-08T11:07:38.738Z,956.88
2022-10-08T11:08:38.730Z,956.89
2022-10-08T11:09:38.722Z,956.87
2022-10-08T11:10:38.713Z,956.82
2022-10-08T11:11:38.710Z,956.81
2022-10-08T11:12:38.701Z,956.88
2022-10-08T11:13:38.690Z,956.9
2022-10-08T11:14:38.681Z,956.91
2022-10-08T11:15:38.721Z,956.87
2022-10-08T11:16:38.668Z,956.84
2022-10-08T11:17:38.682Z,956.88
2022-10-08T11:18:38.652Z,956.87
2022-10-08T11:19:38.643Z,956.87
2022-10-08T11:20:38.635Z,956.81
2022-10-08T11:21:38.626Z,956.81
2022-10-08T11:22:39.647Z,956.86
2022-10-08T11:23:39.640Z,956.88
2022-10-08T11:24:39.630Z,956.9
2022-10-08T11:25:55.945Z,956.86
2022-10-08T11:26:39.615Z,956.94
2022-10-08T11:27:39.608Z,956.87
2022-10-08T11:28:39.647Z,956.87
2022-10-08T11:29:39.595Z,956.87
2022-10-08T11:30:39.596Z,956.94
2022-10-08T11:31:39.578Z,956.91
2022-10-08T11:32:39.569Z,956.88
2022-10-08T11:33:39.587Z,956.91
2022-10-08T11:34:39.554Z,956.89
2022-10-08T11:35:39.545Z,956.89
2022-10-08T11:36:39.537Z,956.9
2022-10-08T11:37:39.530Z,956.85
2022-10-08T11:38:39.525Z,956.84
2022-10-08T11:39:39.513Z,956.83
2022-10-08T11:40:39.510Z,956.87
2022-10-08T11:41:39.497Z,956.81
2022-10-08T11:42:42.131Z,956.87
2022-10-08T11:43:39.483Z,956.84
2022-10-08T11:44:39.477Z,956.86
2022-10-08T11:45:39.466Z,956.84
2022-10-08T11:46:39.504Z,956.81
2022-10-08T11:47:39.452Z,956.88
2022-10-08T11:48:39.448Z,956.9
2022-10-08T11:49:39.462Z,956.82
2022-10-08T11:50:39.432Z,956.83
2022-10-08T11:51:39.425Z,956.75
2022-10-08T11:52:39.416Z,956.85
2022-10-08T11:53:39.408Z,956.79
2022-10-08T11:54:39.402Z,956.82
2022-10-08T11:55:39.395Z,956.85
2022-10-08T11:56:39.385Z,956.89
2022-10-08T11:58:05.962Z,956.86
2022-10-08T11:58:39.373Z,956.88
2022-10-08T11:59:39.364Z,956.91
2022-10-08T12:00:39.359Z,956.93
2022-10-08T12:01:39.351Z,956.91
2022-10-08T12:02:39.453Z,956.93
2022-10-08T12:03:39.353Z,956.93
2022-10-08T12:04:39.327Z,956.9
2022-10-08T12:05:39.344Z,956.85
2022-10-08T12:06:39.316Z,956.86
2022-10-08T12:07:39.305Z,956.84
2022-10-08T12:08:39.301Z,956.82
2022-10-08T12:09:39.291Z,956.82
2022-10-08T12:10:39.289Z,956.81
2022-10-08T12:11:39.276Z,956.79
2022-10-08T12:12:39.272Z,956.83
2022-10-08T12:13:39.264Z,956.84
2022-10-08T12:14:39.259Z,956.89
2022-10-08T12:15:39.281Z,956.87
2022-10-08T12:16:39.243Z,956.88
2022-10-08T12:17:39.236Z,956.89
2022-10-08T12:18:39.229Z,956.88
2022-10-08T12:19:39.221Z,956.89
2022-10-08T12:20:39.219Z,956.86
2022-10-08T12:21:39.231Z,956.86
2022-10-08T12:22:39.197Z,956.85
2022-10-08T12:23:39.193Z,956.76
2022-10-08T12:24:39.187Z,956.78
2022-10-08T12:25:39.180Z,956.82
2022-10-08T12:26:40.039Z,956.81
2022-10-08T12:27:40.067Z,956.77
2022-10-08T12:28:40.042Z,956.77
2022-10-08T12:29:40.017Z,956.75
2022-10-08T12:30:40.008Z,956.74
2022-10-08T12:31:40.188Z,956.78
2022-10-08T12:32:39.997Z,956.71
2022-10-08T12:33:39.988Z,956.71
2022-10-08T12:34:39.979Z,956.73
2022-10-08T12:35:39.973Z,956.7
2022-10-08T12:36:39.966Z,956.68
2022-10-08T12:37:39.997Z,956.72
2022-10-08T12:38:39.960Z,956.77
2022-10-08T12:39:39.946Z,956.74
2022-10-08T12:40:39.938Z,956.76
2022-10-08T12:41:39.937Z,956.76
2022-10-08T12:42:39.921Z,956.74
2022-10-08T12:43:39.917Z,956.76
2022-10-08T12:44:39.911Z,956.76
2022-10-08T12:45:39.904Z,956.8
2022-10-08T12:46:39.951Z,956.77
2022-10-08T12:47:39.889Z,956.81